Time;durP1;ratioP1;P1;durP2;ratioP2;P2;SDS_P1;SDS_P2;PMS_P1;PMS_P2;Temp;Humidity;BMP_temperature;BMP_pressure;BME280_temperature;BME280_humidity;BME280_pressure;Samples;Min_cycle;Max_cycle;Signal;HPM_P1;HPM_P2
2022/05/10 00:00:33;;;;;;;9.85;8.85;;;22.50;64.60;;;;;;5052790;28;20025;-85
2022/05/10 00:03:01;;;;;;;9.82;8.52;;;22.60;64.20;;;;;;5034118;28;20518;-84
2022/05/10 00:05:35;;;;;;;10.30;8.75;;;22.70;64.00;;;;;;5035224;28;20087;-88
2022/05/10 00:08:03;;;;;;;11.32;8.73;;;22.70;64.20;;;;;;5053038;28;20029;-86
2022/05/10 00:10:29;;;;;;;12.07;10.13;;;22.30;64.80;;;;;;5032090;28;20030;-82
2022/05/10 00:12:55;;;;;;;12.50;9.25;;;22.30;65.10;;;;;;5026492;28;20593;-87
2022/05/10 00:15:21;;;;;;;10.52;8.57;;;22.50;64.90;;;;;;5035068;28;20029;-86
2022/05/10 00:17:48;;;;;;;10.95;8.18;;;22.40;64.90;;;;;;5034755;28;20066;-85
2022/05/10 00:20:17;;;;;;;11.65;9.63;;;22.40;64.70;;;;;;5051554;28;20021;-86
2022/05/10 00:22:43;;;;;;;12.52;9.52;;;22.40;64.90;;;;;;5035145;28;20116;-86
2022/05/10 00:25:11;;;;;;;12.13;10.48;;;22.30;64.90;;;;;;5017964;28;20028;-85
2022/05/10 00:27:37;;;;;;;11.65;9.52;;;22.40;64.70;;;;;;5035519;28;20382;-86
2022/05/10 00:30:04;;;;;;;11.40;9.93;;;22.40;64.60;;;;;;5053030;28;20039;-86
2022/05/10 00:32:33;;;;;;;9.80;8.25;;;22.50;64.50;;;;;;5053000;28;20387;-85
2022/05/10 00:34:59;;;;;;;12.68;10.27;;;22.60;64.30;;;;;;5053021;28;20096;-85
2022/05/10 00:37:24;;;;;;;10.23;8.55;;;22.60;64.50;;;;;;5034952;28;20116;-85
2022/05/10 00:39:50;;;;;;;10.63;9.45;;;22.40;65.60;;;;;;5053080;28;20463;-83
2022/05/10 00:42:28;;;;;;;13.40;11.07;;;22.40;65.20;;;;;;5053133;28;20025;-84
2022/05/10 00:45:01;;;;;;;11.50;9.23;;;22.30;65.20;;;;;;5037289;28;20024;-82
2022/05/10 00:47:51;;;;;;;13.18;10.50;;;22.50;64.70;;;;;;5038840;28;20084;-85
2022/05/10 00:50:23;;;;;;;10.57;8.97;;;22.60;64.50;;;;;;5053420;28;20083;-84
2022/05/10 00:53:14;;;;;;;10.88;9.02;;;22.70;64.30;;;;;;5048415;28;20036;-84
2022/05/10 00:55:42;;;;;;;9.88;8.50;;;22.70;64.40;;;;;;5035108;28;20507;-83
2022/05/10 00:58:14;;;;;;;9.93;8.27;;;22.60;64.00;;;;;;5043512;28;20036;-83
2022/05/10 01:00:42;;;;;;;10.32;8.48;;;22.50;64.20;;;;;;5056750;28;20025;-86
2022/05/10 01:03:10;;;;;;;12.48;9.70;;;22.40;64.30;;;;;;5056200;28;20021;-83
2022/05/10 01:05:52;;;;;;;11.95;9.35;;;22.30;64.80;;;;;;5055997;28;20033;-81
2022/05/10 01:08:45;;;;;;;12.13;9.40;;;22.30;64.30;;;;;;5054711;28;20029;-81
2022/05/10 01:11:14;;;;;;;13.70;10.55;;;22.20;64.50;;;;;;5034650;28;20040;-80
2022/05/10 01:14:01;;;;;;;10.02;7.60;;;22.20;64.40;;;;;;5038850;28;20488;-84
2022/05/10 01:16:27;;;;;;;9.32;7.97;;;22.00;64.40;;;;;;5036476;28;20096;-82
2022/05/10 01:18:53;;;;;;;11.32;10.15;;;21.60;66.20;;;;;;5052622;28;20091;-80
2022/05/10 01:21:53;;;;;;;10.20;7.72;;;21.60;66.00;;;;;;5055339;28;20060;-83
2022/05/10 01:24:28;;;;;;;13.40;9.30;;;21.70;65.40;;;;;;5055833;28;20025;-82
2022/05/10 01:27:15;;;;;;;9.48;8.13;;;21.40;66.20;;;;;;5055601;28;20421;-81
2022/05/10 01:29:50;;;;;;;10.95;8.70;;;21.20;67.30;;;;;;5055482;28;20067;-83
2022/05/10 01:35:17;;;;;;;9.68;7.78;;;21.40;66.40;;;;;;5055302;28;20083;-78
2022/05/10 01:37:48;;;;;;;9.38;8.38;;;21.10;67.40;;;;;;5037944;28;20108;-81
2022/05/10 01:40:48;;;;;;;12.57;8.05;;;21.00;66.80;;;;;;5055539;28;20032;-82
2022/05/10 01:43:39;;;;;;;9.00;7.82;;;21.40;66.40;;;;;;4973914;28;20053;-83
2022/05/10 01:46:15;;;;;;;12.52;8.63;;;21.60;65.80;;;;;;4974201;28;20050;-82
2022/05/10 01:48:44;;;;;;;9.43;7.82;;;21.50;66.70;;;;;;4973606;28;20058;-81
2022/05/10 01:51:21;;;;;;;11.98;9.82;;;21.50;66.40;;;;;;4974005;28;20031;-80
2022/05/10 01:53:47;;;;;;;14.48;11.52;;;21.70;66.40;;;;;;4957063;28;20138;-80
2022/05/10 01:56:20;;;;;;;11.38;9.93;;;21.50;67.50;;;;;;4973392;28;20113;-82
2022/05/10 01:58:47;;;;;;;12.68;10.30;;;21.70;67.20;;;;;;4956928;28;20043;-81
2022/05/10 02:01:23;;;;;;;12.27;10.07;;;21.80;67.00;;;;;;4972920;28;20121;-83
2022/05/10 02:04:08;;;;;;;11.95;9.15;;;22.00;65.80;;;;;;4957483;28;20034;-82
2022/05/10 02:06:40;;;;;;;10.00;8.10;;;22.30;64.50;;;;;;4973660;28;20123;-83
2022/05/10 02:09:42;;;;;;;9.80;8.73;;;22.00;64.30;;;;;;4974225;28;20513;-80
2022/05/10 02:12:17;;;;;;;10.68;8.15;;;21.70;64.30;;;;;;4938701;29;20604;-83
2022/05/10 02:14:50;;;;;;;11.35;9.70;;;21.80;64.30;;;;;;4954161;29;20039;-83
2022/05/10 02:17:32;;;;;;;10.80;9.35;;;21.90;64.00;;;;;;4955382;29;20027;-82
2022/05/10 02:20:07;;;;;;;9.90;8.75;;;21.90;63.90;;;;;;5011164;28;20567;-84
2022/05/10 02:23:00;;;;;;;10.02;8.85;;;21.70;64.60;;;;;;5013352;28;20121;-85
2022/05/10 02:25:33;;;;;;;11.38;7.40;;;21.50;65.80;;;;;;5012512;28;20038;-84
2022/05/10 02:28:05;;;;;;;14.35;9.75;;;21.30;64.60;;;;;;4995688;28;20069;-84
2022/05/10 02:30:35;;;;;;;9.65;8.65;;;21.20;65.70;;;;;;4996385;28;20396;-85
2022/05/10 02:33:07;;;;;;;14.70;10.15;;;21.10;65.90;;;;;;5012645;28;20034;-84
2022/05/10 02:35:47;;;;;;;9.98;8.70;;;21.30;65.30;;;;;;4996455;28;20030;-89
2022/05/10 02:38:17;;;;;;;7.60;6.80;;;21.30;63.80;;;;;;5013078;28;20439;-88
2022/05/10 02:40:45;;;;;;;10.70;8.40;;;21.40;63.30;;;;;;5012414;28;20034;-89
2022/05/10 02:43:19;;;;;;;10.75;8.25;;;21.20;64.20;;;;;;4996252;28;20060;-85
2022/05/10 02:45:45;;;;;;;12.05;8.20;;;21.30;63.20;;;;;;4997004;28;20061;-88
2022/05/10 02:48:32;;;;;;;9.57;8.52;;;21.30;63.00;;;;;;5023729;28;20029;-89
2022/05/10 02:50:58;;;;;;;15.82;9.50;;;21.20;62.90;;;;;;5033696;28;20472;-90
2022/05/10 02:53:25;;;;;;;12.27;8.90;;;21.00;63.30;;;;;;5052308;28;20399;-88
2022/05/10 02:55:58;;;;;;;10.60;8.27;;;21.10;63.30;;;;;;5033402;28;20025;-90
2022/05/10 02:58:35;;;;;;;9.38;7.80;;;20.90;63.20;;;;;;5036535;28;20120;-83
2022/05/10 03:01:48;;;;;;;9.80;7.97;;;20.70;64.60;;;;;;5036758;28;20017;-90
2022/05/10 03:04:14;;;;;;;12.50;8.95;;;20.40;65.30;;;;;;4976855;28;20057;-90
2022/05/10 03:06:42;;;;;;;10.88;8.05;;;20.70;64.90;;;;;;5001133;28;20117;-93
2022/05/10 03:09:08;;;;;;;10.88;8.60;;;20.70;65.20;;;;;;4979738;28;20034;-92
2022/05/10 03:11:35;;;;;;;11.13;9.93;;;20.90;64.80;;;;;;4996080;28;20037;-85
2022/05/10 03:14:02;;;;;;;9.88;8.68;;;21.00;65.20;;;;;;4976867;28;20034;-84
2022/05/10 03:16:28;;;;;;;11.05;9.55;;;21.00;65.00;;;;;;4976751;28;20066;-92
2022/05/10 03:18:54;;;;;;;11.57;7.50;;;20.90;64.30;;;;;;4992908;28;20440;-88
2022/05/10 03:21:21;;;;;;;11.30;8.75;;;20.70;64.10;;;;;;4976886;28;20018;-93
2022/05/10 03:23:46;;;;;;;10.23;7.25;;;20.40;65.60;;;;;;4969168;28;20034;-88
2022/05/10 03:26:15;;;;;;;11.95;8.90;;;20.40;66.00;;;;;;5001123;28;20081;-92
2022/05/10 03:28:41;;;;;;;10.27;8.48;;;20.40;66.80;;;;;;4976604;28;20073;-85
2022/05/10 03:31:08;;;;;;;13.13;9.57;;;20.50;66.40;;;;;;4976474;28;20038;-89
2022/05/10 03:33:34;;;;;;;10.15;8.70;;;20.80;65.50;;;;;;4992766;28;20030;-86
2022/05/10 03:35:59;;;;;;;12.30;8.93;;;21.10;64.80;;;;;;4976424;28;20019;-84
2022/05/10 03:38:25;;;;;;;9.82;8.77;;;21.30;64.50;;;;;;5028991;28;20044;-87
2022/05/10 03:40:51;;;;;;;14.23;8.60;;;21.10;63.70;;;;;;5035447;28;20387;-82
2022/05/10 03:43:17;;;;;;;11.02;9.43;;;20.90;65.40;;;;;;5034168;28;20025;-81
2022/05/10 03:45:42;;;;;;;12.50;9.73;;;20.70;65.50;;;;;;5030836;28;20032;-85
2022/05/10 03:48:08;;;;;;;12.15;9.10;;;20.80;66.00;;;;;;5035775;28;20132;-93
2022/05/10 03:50:34;;;;;;;10.57;8.52;;;21.00;65.00;;;;;;5035774;28;20037;-89
2022/05/10 03:53:00;;;;;;;10.30;7.82;;;20.60;66.70;;;;;;5034965;28;20029;-86
2022/05/10 03:55:28;;;;;;;10.35;8.80;;;20.40;67.10;;;;;;5053783;28;20067;-88
2022/05/10 03:57:55;;;;;;;13.55;9.60;;;20.40;67.80;;;;;;5032416;28;20039;-85
2022/05/10 04:00:24;;;;;;;10.18;8.65;;;20.70;67.10;;;;;;5028692;28;20021;-84
2022/05/10 04:02:50;;;;;;;10.68;9.05;;;20.80;66.90;;;;;;5035886;28;20024;-87
2022/05/10 04:05:18;;;;;;;11.95;8.40;;;21.00;66.60;;;;;;5035290;28;20082;-83
2022/05/10 04:07:44;;;;;;;9.52;7.97;;;21.20;65.90;;;;;;5053107;28;20151;-80
2022/05/10 04:10:11;;;;;;;12.98;9.95;;;20.90;66.70;;;;;;5034767;28;20467;-91
2022/05/10 04:12:38;;;;;;;11.98;10.05;;;20.60;68.50;;;;;;5035230;28;20438;-92
2022/05/10 04:15:05;;;;;;;13.63;9.43;;;21.00;67.40;;;;;;5035502;28;20433;-83
2022/05/10 04:17:31;;;;;;;10.73;8.35;;;21.40;66.70;;;;;;5035245;28;20032;-83
2022/05/10 04:19:58;;;;;;;14.32;10.18;;;21.50;66.30;;;;;;5034716;28;20388;-91
2022/05/10 04:22:24;;;;;;;9.70;8.70;;;21.70;66.40;;;;;;5032413;28;20060;-91
2022/05/10 04:24:50;;;;;;;13.32;10.05;;;21.70;66.20;;;;;;5035793;28;20025;-80
2022/05/10 04:27:16;;;;;;;9.43;8.18;;;21.90;65.20;;;;;;5035296;28;20114;-85
2022/05/10 04:29:41;;;;;;;11.60;10.15;;;21.80;65.50;;;;;;5039383;28;20414;-83
2022/05/10 04:32:07;;;;;;;11.38;9.00;;;21.20;67.60;;;;;;5038881;28;20126;-94
2022/05/10 04:34:34;;;;;;;11.13;7.90;;;21.40;67.00;;;;;;5056740;28;20049;-84
2022/05/10 04:36:59;;;;;;;10.13;8.32;;;21.60;66.70;;;;;;5035950;28;20029;-94
2022/05/10 04:41:24;;;;;;;9.93;8.70;;;21.50;66.60;;;;;;5037233;28;20091;-91
2022/05/10 04:42:11;;;;;;;10.98;9.18;;;21.60;66.60;;;;;;5057001;28;20025;-83
2022/05/10 04:44:36;;;;;;;14.32;9.10;;;22.00;65.90;;;;;;5039263;28;20028;-82
2022/05/10 04:47:02;;;;;;;12.40;8.02;;;22.20;65.50;;;;;;5039514;28;20029;-87
2022/05/10 04:49:28;;;;;;;13.73;10.13;;;21.90;66.50;;;;;;5039190;28;20418;-83
2022/05/10 04:51:54;;;;;;;10.80;9.70;;;21.80;67.00;;;;;;5048823;28;20488;-81
2022/05/10 04:54:19;;;;;;;12.48;8.18;;;21.90;66.60;;;;;;5035655;28;20089;-80
2022/05/10 04:56:45;;;;;;;12.57;9.48;;;22.20;66.00;;;;;;5036443;28;20047;-79
2022/05/10 04:59:11;;;;;;;9.05;8.15;;;22.10;66.80;;;;;;5038496;28;20033;-80
2022/05/10 05:01:36;;;;;;;11.48;8.60;;;22.30;65.50;;;;;;5043829;28;20095;-83
2022/05/10 05:04:02;;;;;;;12.32;7.47;;;22.30;64.90;;;;;;5021903;28;20025;-80
2022/05/10 05:06:29;;;;;;;9.52;7.20;;;22.50;64.40;;;;;;5056245;28;20021;-81
2022/05/10 05:08:55;;;;;;;12.13;8.75;;;22.70;62.70;;;;;;5048869;28;20056;-81
2022/05/10 05:11:21;;;;;;;9.05;7.20;;;22.80;64.00;;;;;;5036057;28;20032;-79
2022/05/10 05:13:47;;;;;;;9.20;6.97;;;22.70;62.90;;;;;;5039056;28;20037;-81
2022/05/10 05:16:16;;;;;;;9.82;6.03;;;22.30;63.70;;;;;;5055693;28;20040;-80
2022/05/10 05:18:41;;;;;;;7.63;5.68;;;21.80;63.60;;;;;;5055585;28;20112;-80
2022/05/10 05:21:07;;;;;;;8.23;5.78;;;21.90;63.30;;;;;;5035853;28;20025;-78
2022/05/10 05:23:33;;;;;;;9.38;6.10;;;22.20;63.00;;;;;;5027697;28;20112;-81
2022/05/10 05:25:58;;;;;;;7.38;5.60;;;22.20;63.40;;;;;;5025636;28;20464;-80
2022/05/10 05:28:24;;;;;;;7.75;5.95;;;22.10;62.80;;;;;;5030331;28;20037;-80
2022/05/10 05:30:51;;;;;;;7.97;5.75;;;22.40;63.90;;;;;;5028291;28;20021;-78
2022/05/10 05:33:17;;;;;;;8.65;5.68;;;22.50;63.60;;;;;;5045442;28;20040;-81
2022/05/10 05:35:43;;;;;;;11.32;6.20;;;22.50;63.20;;;;;;5018560;28;20468;-79
2022/05/10 05:38:09;;;;;;;6.00;4.82;;;22.70;63.30;;;;;;5023471;28;20036;-81
2022/05/10 05:40:37;;;;;;;8.07;5.85;;;22.50;60.60;;;;;;5031511;28;20025;-79
2022/05/10 05:43:28;;;;;;;7.63;5.25;;;22.20;61.70;;;;;;5035154;28;20079;-80
2022/05/10 05:45:53;;;;;;;5.43;4.38;;;22.30;60.50;;;;;;5034884;28;20104;-81
2022/05/10 05:48:20;;;;;;;6.80;5.20;;;22.20;60.40;;;;;;5023760;28;20047;-81
2022/05/10 05:50:46;;;;;;;6.80;4.65;;;22.50;61.40;;;;;;5027318;28;20107;-82
2022/05/10 05:53:12;;;;;;;6.82;4.93;;;22.10;61.40;;;;;;5053605;28;20104;-84
2022/05/10 05:55:38;;;;;;;7.40;4.93;;;22.00;60.70;;;;;;5030641;28;20021;-82
2022/05/10 05:58:04;;;;;;;8.77;5.55;;;22.50;59.00;;;;;;5037984;28;20071;-88
2022/05/10 06:00:30;;;;;;;6.65;5.10;;;23.10;59.10;;;;;;5037569;28;20025;-81
2022/05/10 06:02:55;;;;;;;5.47;4.50;;;23.60;59.90;;;;;;5048944;28;20076;-83
2022/05/10 06:05:23;;;;;;;7.43;4.45;;;23.60;58.30;;;;;;5054800;28;20013;-85
2022/05/10 06:07:49;;;;;;;8.80;4.93;;;23.30;56.70;;;;;;5037409;28;20499;-82
2022/05/10 06:10:15;;;;;;;8.52;4.82;;;22.90;59.30;;;;;;5041009;28;20113;-80
2022/05/10 06:12:41;;;;;;;6.65;5.00;;;23.40;59.70;;;;;;5053090;28;20495;-82
2022/05/10 06:15:11;;;;;;;8.95;6.00;;;23.80;59.10;;;;;;5055264;28;20021;-80
2022/05/10 06:17:38;;;;;;;10.02;4.93;;;23.90;59.30;;;;;;5055032;28;20048;-79
2022/05/10 06:20:07;;;;;;;6.40;5.18;;;23.70;59.10;;;;;;5043293;28;20060;-77
2022/05/10 06:22:34;;;;;;;11.43;5.70;;;23.90;58.70;;;;;;5039147;28;20112;-77
2022/05/10 06:25:00;;;;;;;7.30;4.82;;;24.40;56.60;;;;;;5024593;28;20075;-75
2022/05/10 06:27:26;;;;;;;6.13;4.60;;;24.80;57.90;;;;;;5050408;28;20033;-76
2022/05/10 06:29:52;;;;;;;9.20;5.68;;;24.90;57.30;;;;;;5036403;28;20111;-76
2022/05/10 06:32:26;;;;;;;7.50;5.43;;;25.20;56.90;;;;;;5054140;28;20373;-77
2022/05/10 06:34:53;;;;;;;7.22;4.30;;;25.40;55.70;;;;;;5033353;28;20030;-88
2022/05/10 06:40:10;;;;;;;10.15;4.90;;;23.30;57.90;;;;;;5034007;28;20071;-76
2022/05/10 06:42:36;;;;;;;6.28;4.63;;;23.70;57.80;;;;;;5034036;28;20112;-76
2022/05/10 06:45:02;;;;;;;6.35;4.45;;;24.40;56.80;;;;;;5033628;28;20039;-77
2022/05/10 06:47:28;;;;;;;7.50;4.70;;;24.90;55.50;;;;;;5033339;28;20026;-82
2022/05/10 06:49:54;;;;;;;7.15;4.63;;;24.90;56.60;;;;;;5033676;28;20119;-75
2022/05/10 06:52:19;;;;;;;9.98;4.43;;;25.10;55.90;;;;;;5034510;28;20550;-76
2022/05/10 06:54:45;;;;;;;6.95;4.28;;;25.20;55.60;;;;;;5033343;28;20052;-79
2022/05/10 06:57:11;;;;;;;8.32;5.28;;;25.40;55.30;;;;;;5034041;28;20033;-76
2022/05/10 06:59:37;;;;;;;8.20;4.47;;;25.00;57.30;;;;;;5033931;28;20101;-78
2022/05/10 07:02:02;;;;;;;6.05;4.40;;;24.70;56.40;;;;;;5033268;28;20112;-76
2022/05/10 07:04:28;;;;;;;6.85;4.97;;;24.40;58.20;;;;;;5033670;28;20383;-77
2022/05/10 07:06:54;;;;;;;7.18;4.45;;;24.60;56.40;;;;;;5033824;28;20028;-78
2022/05/10 07:09:19;;;;;;;10.40;4.53;;;24.60;56.10;;;;;;5033602;28;20037;-76
2022/05/10 07:11:46;;;;;;;6.97;4.25;;;24.70;57.40;;;;;;5033540;28;20025;-76
2022/05/10 07:14:12;;;;;;;5.15;4.30;;;25.30;56.30;;;;;;5033438;28;20033;-76
2022/05/10 07:16:38;;;;;;;5.97;4.40;;;25.60;56.20;;;;;;5033442;28;20013;-76
2022/05/10 07:19:04;;;;;;;6.65;4.10;;;25.20;55.20;;;;;;5032039;28;20121;-76
2022/05/10 07:21:30;;;;;;;7.60;4.30;;;25.30;55.90;;;;;;5033219;28;20021;-78
2022/05/10 07:23:56;;;;;;;7.90;4.47;;;25.10;56.30;;;;;;5032146;28;20434;-77
2022/05/10 07:26:22;;;;;;;6.32;4.10;;;25.30;57.70;;;;;;5033305;28;20056;-78
2022/05/10 07:28:47;;;;;;;7.13;4.53;;;25.60;55.00;;;;;;5033443;28;20506;-76
2022/05/10 07:31:14;;;;;;;8.27;4.30;;;25.90;54.60;;;;;;5033259;28;20548;-76
2022/05/10 07:33:39;;;;;;;9.18;4.28;;;26.40;55.40;;;;;;5033497;28;20029;-79
2022/05/10 07:38:49;;;;;;;6.00;4.30;;;27.10;55.40;;;;;;5033423;28;20163;-76
2022/05/10 07:41:18;;;;;;;5.55;4.10;;;26.00;53.50;;;;;;5033395;28;20037;-77
2022/05/10 07:43:45;;;;;;;7.40;4.40;;;24.90;56.30;;;;;;5033066;28;20071;-75
2022/05/10 07:46:10;;;;;;;8.40;3.97;;;24.10;58.10;;;;;;5032892;28;20082;-75
2022/05/10 07:48:36;;;;;;;7.47;4.80;;;24.60;56.60;;;;;;5032549;28;20053;-75
2022/05/10 07:51:03;;;;;;;6.82;4.35;;;25.30;55.90;;;;;;5032962;28;20017;-84
2022/05/10 07:53:31;;;;;;;5.70;4.03;;;25.90;54.60;;;;;;5032712;28;20033;-78
2022/05/10 07:55:58;;;;;;;6.40;4.18;;;26.10;54.30;;;;;;5032020;28;20014;-76
2022/05/10 07:58:24;;;;;;;8.77;3.65;;;26.10;55.00;;;;;;5033148;28;20080;-93
2022/05/10 08:00:49;;;;;;;8.40;3.90;;;26.00;53.50;;;;;;5032840;28;20517;-75
2022/05/10 08:03:18;;;;;;;6.80;4.10;;;25.70;55.40;;;;;;5032679;28;20079;-78
2022/05/10 08:05:45;;;;;;;6.55;3.88;;;26.20;54.80;;;;;;5032736;28;20041;-75
2022/05/10 08:08:12;;;;;;;6.05;3.70;;;26.60;50.20;;;;;;5032679;28;20112;-80
2022/05/10 08:10:41;;;;;;;6.05;3.40;;;27.00;50.40;;;;;;5031567;28;20026;-75
2022/05/10 08:13:17;;;;;;;8.03;3.60;;;26.70;51.60;;;;;;5033141;28;20465;-78
2022/05/10 08:15:44;;;;;;;7.05;3.95;;;26.70;48.70;;;;;;5032079;28;20282;-83
2022/05/10 08:18:11;;;;;;;8.23;4.63;;;27.00;51.00;;;;;;5031928;28;20036;-78
2022/05/10 08:20:38;;;;;;;5.05;3.22;;;27.10;49.80;;;;;;5032845;28;20188;-75
2022/05/10 08:23:06;;;;;;;5.53;3.50;;;27.40;50.90;;;;;;5032565;28;20021;-76
2022/05/10 08:25:32;;;;;;;4.70;3.50;;;27.60;50.00;;;;;;5032452;28;20025;-75
2022/05/10 08:27:58;;;;;;;6.57;3.47;;;27.40;48.30;;;;;;5032494;28;20380;-77
2022/05/10 08:30:24;;;;;;;6.72;3.60;;;27.20;50.00;;;;;;5033381;28;20483;-80
2022/05/10 08:32:50;;;;;;;4.38;3.30;;;27.30;49.20;;;;;;5031512;28;20614;-79
2022/05/10 08:35:15;;;;;;;5.50;3.53;;;26.40;50.10;;;;;;5014776;28;20530;-76
2022/05/10 08:37:41;;;;;;;5.63;3.08;;;26.30;49.40;;;;;;5032832;28;20455;-82
2022/05/10 08:40:17;;;;;;;5.03;3.20;;;26.90;51.40;;;;;;5032368;28;20053;-89
2022/05/10 08:42:48;;;;;;;3.72;2.70;;;27.00;48.50;;;;;;5032801;28;20052;-82
2022/05/10 08:45:14;;;;;;;8.00;3.55;;;26.70;48.10;;;;;;5014827;28;20041;-77
2022/05/10 08:47:41;;;;;;;6.13;3.65;;;26.70;51.70;;;;;;5014865;28;20392;-84
2022/05/10 08:50:10;;;;;;;10.13;3.28;;;27.40;52.20;;;;;;5027648;28;20050;-81
2022/05/10 08:52:40;;;;;;;5.20;3.10;;;27.60;48.20;;;;;;5013487;28;20042;-75
2022/05/10 08:55:08;;;;;;;4.50;3.30;;;27.70;49.90;;;;;;5012411;28;20483;-79
2022/05/10 08:57:46;;;;;;;4.82;2.97;;;27.90;49.20;;;;;;5012934;28;20267;-77
2022/05/10 09:00:31;;;;;;;5.03;3.20;;;28.10;48.60;;;;;;5012841;28;20022;-77
2022/05/10 09:03:00;;;;;;;5.82;3.30;;;28.20;48.50;;;;;;5011315;28;20500;-75
2022/05/10 09:05:37;;;;;;;6.72;3.20;;;28.40;48.90;;;;;;5012418;28;20034;-76
2022/05/10 09:08:28;;;;;;;5.25;3.30;;;28.30;48.00;;;;;;5030788;28;20461;-79
2022/05/10 09:11:01;;;;;;;7.95;3.53;;;28.90;49.20;;;;;;5016298;28;20083;-78
2022/05/10 09:13:27;;;;;;;5.75;3.17;;;29.10;48.40;;;;;;5031303;28;20449;-87
2022/05/10 09:16:05;;;;;;;6.03;3.20;;;29.10;48.10;;;;;;5015901;28;20535;-76
2022/05/10 09:18:39;;;;;;;5.82;3.08;;;28.60;47.70;;;;;;5015925;28;20022;-80
2022/05/10 09:21:33;;;;;;;5.00;3.17;;;28.80;48.80;;;;;;5015927;28;20030;-75
2022/05/10 09:24:45;;;;;;;5.60;3.55;;;28.90;49.20;;;;;;5016219;28;20052;-81
2022/05/10 09:27:10;;;;;;;5.38;3.40;;;29.30;48.40;;;;;;5014152;28;20114;-76
2022/05/10 09:29:36;;;;;;;5.28;3.13;;;29.40;48.30;;;;;;5014427;28;20029;-75
2022/05/10 09:35:27;;;;;;;6.57;3.33;;;29.30;48.30;;;;;;5016090;28;20032;-82
2022/05/10 09:38:01;;;;;;;4.10;3.03;;;28.80;48.10;;;;;;5015893;28;20108;-87
2022/05/10 09:40:32;;;;;;;6.47;3.35;;;29.00;46.90;;;;;;5015491;28;20048;-77
2022/05/10 09:43:22;;;;;;;7.07;3.30;;;28.80;50.20;;;;;;5015637;28;20022;-76
2022/05/10 09:46:06;;;;;;;7.72;3.25;;;29.40;47.50;;;;;;5015625;28;20053;-78
2022/05/10 09:48:32;;;;;;;5.03;3.05;;;29.00;45.50;;;;;;5018627;28;20026;-79
2022/05/10 09:50:58;;;;;;;4.72;3.33;;;28.00;47.10;;;;;;5034770;28;20022;-79
2022/05/10 09:53:25;;;;;;;4.20;3.00;;;28.30;49.10;;;;;;5035325;28;20033;-78
2022/05/10 09:56:10;;;;;;;6.82;3.28;;;28.40;48.30;;;;;;5035006;28;20100;-78
2022/05/10 09:58:43;;;;;;;5.47;3.40;;;28.20;47.90;;;;;;5035787;28;20075;-77
2022/05/10 10:01:13;;;;;;;6.28;3.40;;;28.60;48.60;;;;;;5034788;28;20068;-81
2022/05/10 10:03:42;;;;;;;4.50;3.10;;;28.80;47.70;;;;;;5034254;28;20092;-79
2022/05/10 10:06:23;;;;;;;6.15;3.30;;;29.00;48.00;;;;;;5033982;28;20032;-84
2022/05/10 10:08:51;;;;;;;6.28;3.10;;;29.70;47.60;;;;;;5034239;28;20053;-87
2022/05/10 10:11:26;;;;;;;5.78;2.97;;;30.00;46.90;;;;;;5035279;28;20463;-85
2022/05/10 10:13:58;;;;;;;5.35;3.13;;;29.90;46.60;;;;;;5033784;28;20037;-78
2022/05/10 10:16:37;;;;;;;7.05;3.22;;;29.70;47.90;;;;;;5035342;28;20034;-77
2022/05/10 10:19:20;;;;;;;5.88;3.10;;;30.10;46.30;;;;;;5034422;28;20025;-79
2022/05/10 10:22:00;;;;;;;6.15;3.20;;;30.40;45.80;;;;;;5034618;28;20025;-80
2022/05/10 10:24:44;;;;;;;6.00;3.10;;;30.10;45.40;;;;;;5034651;28;20113;-84
2022/05/10 10:27:17;;;;;;;6.70;2.95;;;29.80;47.60;;;;;;5034845;28;20018;-82
2022/05/10 10:29:53;;;;;;;4.05;2.92;;;29.80;46.40;;;;;;5034600;28;20455;-79
2022/05/10 10:32:29;;;;;;;5.75;3.33;;;30.10;45.30;;;;;;5017322;28;20069;-80
2022/05/10 10:35:09;;;;;;;6.15;3.20;;;30.30;44.90;;;;;;5033210;28;20112;-78
2022/05/10 10:37:50;;;;;;;4.53;3.10;;;30.30;44.10;;;;;;5033517;28;20021;-83
2022/05/10 10:40:33;;;;;;;5.80;3.08;;;30.30;43.50;;;;;;5034350;28;20033;-79
2022/05/10 10:43:17;;;;;;;3.90;3.00;;;30.30;43.20;;;;;;5034270;28;20072;-85
2022/05/10 10:45:47;;;;;;;4.97;2.97;;;30.50;43.70;;;;;;5032744;28;20030;-79
2022/05/10 10:48:47;;;;;;;7.35;3.20;;;30.60;45.70;;;;;;5034003;28;20037;-79
2022/05/10 10:51:15;;;;;;;7.05;3.42;;;30.30;43.10;;;;;;5034050;28;20041;-79
2022/05/10 10:53:42;;;;;;;7.10;3.70;;;29.80;46.30;;;;;;5033779;28;20030;-78
2022/05/10 10:56:10;;;;;;;5.25;3.45;;;29.90;45.70;;;;;;5033871;28;20026;-79
2022/05/10 10:58:54;;;;;;;6.57;3.60;;;30.20;45.00;;;;;;5033962;28;20359;-79
2022/05/10 11:01:56;;;;;;;5.18;3.28;;;30.40;44.00;;;;;;5033968;28;20431;-78
2022/05/10 11:04:43;;;;;;;5.95;3.47;;;30.60;46.20;;;;;;5032410;28;20486;-78
2022/05/10 11:07:50;;;;;;;7.38;3.50;;;30.80;45.60;;;;;;5032919;28;20025;-76
2022/05/10 11:10:16;;;;;;;4.95;3.45;;;30.70;44.30;;;;;;5032394;28;20059;-79
2022/05/10 11:13:04;;;;;;;4.75;3.42;;;30.50;45.60;;;;;;5033355;28;20468;-77
2022/05/10 11:16:01;;;;;;;7.70;2.97;;;30.20;46.60;;;;;;5033428;28;20472;-78
2022/05/10 11:18:37;;;;;;;5.65;3.38;;;30.30;46.40;;;;;;5034081;28;20026;-78
2022/05/10 11:21:34;;;;;;;5.60;3.10;;;29.90;46.00;;;;;;5033323;28;20048;-86
2022/05/10 11:24:23;;;;;;;6.93;3.28;;;29.90;46.50;;;;;;5033051;28;20029;-88
2022/05/10 11:27:00;;;;;;;5.15;3.35;;;29.40;46.20;;;;;;5024318;28;20159;-85
2022/05/10 11:29:49;;;;;;;4.95;3.10;;;29.10;47.60;;;;;;5032541;28;20057;-79
2022/05/10 11:32:45;;;;;;;4.70;3.00;;;29.00;45.50;;;;;;5008195;28;20045;-82
2022/05/10 11:35:17;;;;;;;5.00;3.40;;;28.90;46.00;;;;;;5032007;28;20427;-79
2022/05/10 11:37:55;;;;;;;4.78;3.20;;;29.10;46.80;;;;;;5032230;28;20033;-88
2022/05/10 11:41:01;;;;;;;4.85;3.42;;;29.50;45.30;;;;;;5032549;28;20029;-76
2022/05/10 11:43:43;;;;;;;4.93;3.22;;;29.80;45.20;;;;;;5035187;28;20094;-76
2022/05/10 11:46:40;;;;;;;10.13;3.30;;;30.30;46.00;;;;;;5047898;28;20032;-77
2022/05/10 11:49:36;;;;;;;5.05;3.00;;;30.70;45.10;;;;;;5051689;28;20049;-75
2022/05/10 11:52:14;;;;;;;6.07;3.10;;;31.00;44.80;;;;;;5050968;28;20122;-78
2022/05/10 11:54:52;;;;;;;4.35;2.92;;;31.10;45.70;;;;;;5043009;28;20029;-76
2022/05/10 11:57:21;;;;;;;6.03;2.90;;;31.10;43.60;;;;;;5052420;28;20024;-79
2022/05/10 11:59:48;;;;;;;6.38;3.28;;;30.70;43.00;;;;;;5051112;28;20044;-82
2022/05/10 12:02:29;;;;;;;5.57;3.33;;;30.60;44.20;;;;;;5044669;28;20021;-79
2022/05/10 12:05:30;;;;;;;5.25;2.63;;;30.50;45.20;;;;;;5050180;28;20092;-76
2022/05/10 12:07:59;;;;;;;5.38;3.17;;;30.80;44.20;;;;;;5015697;28;20064;-78
2022/05/10 12:10:41;;;;;;;6.55;3.10;;;31.10;45.30;;;;;;5042168;28;20035;-83
2022/05/10 12:13:11;;;;;;;5.60;3.33;;;30.40;43.60;;;;;;5015212;28;20385;-81
2022/05/10 12:21:28;;;;;;;7.30;3.80;;;30.50;46.00;;;;;;4689134;28;10000605;-80
2022/05/10 12:24:20;;;;;;;6.82;3.20;;;30.80;45.60;;;;;;5028790;28;20585;-80
2022/05/10 12:26:55;;;;;;;4.97;3.10;;;31.10;44.60;;;;;;5030013;28;20040;-81
2022/05/10 12:29:54;;;;;;;6.55;3.42;;;31.20;44.70;;;;;;5015431;28;20079;-79
2022/05/10 12:32:37;;;;;;;6.13;3.00;;;31.10;45.40;;;;;;4971075;28;20054;-83
2022/05/10 12:35:17;;;;;;;4.82;3.15;;;30.60;44.40;;;;;;4973973;28;20110;-81
2022/05/10 12:37:54;;;;;;;7.00;3.35;;;30.80;46.00;;;;;;4965322;28;20026;-88
2022/05/10 12:40:33;;;;;;;4.30;3.10;;;30.80;43.80;;;;;;4970738;28;20034;-78
2022/05/10 12:43:36;;;;;;;4.68;3.10;;;30.80;45.80;;;;;;4975216;28;20477;-83
2022/05/10 12:46:45;;;;;;;5.07;3.15;;;31.00;45.10;;;;;;4937570;29;20225;-84
2022/05/10 12:49:46;;;;;;;5.10;3.00;;;30.90;42.80;;;;;;4934565;29;20044;-81
2022/05/10 12:52:21;;;;;;;7.53;3.30;;;30.20;44.10;;;;;;4935107;29;20024;-80
2022/05/10 12:54:53;;;;;;;4.80;3.20;;;30.20;44.10;;;;;;4917938;29;20036;-85
2022/05/10 12:57:33;;;;;;;6.55;3.00;;;30.50;45.80;;;;;;4902252;29;20277;-84
2022/05/10 13:00:11;;;;;;;7.35;3.10;;;30.80;44.30;;;;;;4918064;29;20036;-84
2022/05/10 13:02:40;;;;;;;4.80;3.13;;;30.80;43.60;;;;;;4918285;29;20497;-85
2022/05/10 13:05:13;;;;;;;5.63;2.97;;;30.00;43.90;;;;;;4918221;29;20028;-89
2022/05/10 13:07:42;;;;;;;4.88;2.90;;;29.90;44.10;;;;;;4932721;29;20038;-80
2022/05/10 13:10:11;;;;;;;5.07;2.70;;;29.90;44.30;;;;;;4956555;29;20050;-78
2022/05/10 13:12:45;;;;;;;5.68;3.00;;;30.10;44.50;;;;;;4955835;29;20050;-79
2022/05/10 13:15:17;;;;;;;7.72;3.00;;;30.20;43.70;;;;;;4940306;29;20035;-86
2022/05/10 13:17:48;;;;;;;7.60;2.97;;;29.90;44.20;;;;;;4956674;28;20031;-79
2022/05/10 13:20:15;;;;;;;3.90;2.35;;;30.00;42.50;;;;;;4975268;28;20058;-85
2022/05/10 13:23:03;;;;;;;5.28;2.63;;;30.00;42.60;;;;;;5012272;28;20033;-89
2022/05/10 13:25:32;;;;;;;6.32;2.63;;;29.90;43.10;;;;;;5036503;28;20071;-83
2022/05/10 13:28:18;;;;;;;7.18;2.40;;;30.00;40.70;;;;;;5036043;28;20032;-78